createdAt,value
2022-12-11T00:00:53.936Z,1.85
2022-12-11T00:03:41.568Z,1.85
2022-12-11T00:06:13.469Z,1.86
2022-12-11T00:08:40.853Z,1.87
2022-12-11T00:11:11.992Z,1.89
2022-12-11T00:13:39.042Z,1.87
2022-12-11T00:16:06.852Z,1.88
2022-12-11T00:18:34.091Z,1.89
2022-12-11T00:21:02.905Z,1.91
2022-12-11T00:23:30.028Z,1.93
2022-12-11T00:25:58.356Z,1.93
2022-12-11T00:28:25.375Z,1.97
2022-12-11T00:30:52.591Z,2.00
2022-12-11T00:33:19.544Z,2.03
2022-12-11T00:35:48.017Z,2.01
2022-12-11T00:38:18.298Z,1.98
2022-12-11T00:40:45.648Z,2.03
2022-12-11T00:43:13.149Z,2.01
2022-12-11T00:45:46.398Z,1.99
2022-12-11T00:48:14.386Z,1.99
2022-12-11T00:50:42.685Z,2.00
2022-12-11T00:53:09.943Z,1.98
2022-12-11T00:55:40.188Z,1.98
2022-12-11T00:58:07.915Z,2.01
2022-12-11T01:00:35.856Z,2.03
2022-12-11T01:03:03.532Z,2.02
2022-12-11T01:05:31.313Z,2.03
2022-12-11T01:07:58.826Z,2.01
2022-12-11T01:10:26.662Z,2.04
2022-12-11T01:12:58.880Z,2.06
2022-12-11T01:15:36.445Z,2.06
2022-12-11T01:18:16.680Z,2.07
2022-12-11T01:20:44.057Z,2.09
2022-12-11T01:23:14.093Z,2.08
2022-12-11T01:26:14.616Z,2.08
2022-12-11T01:29:30.349Z,2.08
2022-12-11T01:31:58.101Z,2.06
2022-12-11T01:34:25.292Z,2.09
2022-12-11T01:40:38.713Z,2.09
2022-12-11T01:43:05.982Z,2.08
2022-12-11T01:45:39.492Z,2.09
2022-12-11T01:48:16.062Z,2.07
2022-12-11T01:50:55.128Z,2.10
2022-12-11T01:53:31.104Z,2.11
2022-12-11T01:56:00.163Z,2.09
2022-12-11T01:58:42.777Z,2.10
2022-12-11T02:01:19.170Z,2.10
2022-12-11T02:03:46.587Z,2.11
2022-12-11T02:06:39.278Z,2.11
2022-12-11T02:09:18.036Z,2.11
2022-12-11T02:12:06.746Z,2.08
2022-12-11T02:14:55.633Z,2.09
2022-12-11T02:17:41.221Z,2.10
2022-12-11T02:20:20.641Z,2.10
2022-12-11T02:23:31.439Z,2.11
2022-12-11T02:26:24.036Z,2.09
2022-12-11T02:29:07.259Z,2.09
2022-12-11T02:31:50.381Z,2.07
2022-12-11T02:34:44.990Z,1.79
2022-12-11T02:37:23.081Z,1.87
2022-12-11T02:39:54.944Z,1.98
2022-12-11T02:42:28.384Z,2.00
2022-12-11T02:44:58.475Z,1.98
2022-12-11T02:47:31.987Z,1.99
2022-12-11T02:50:03.521Z,2.00
2022-12-11T02:52:33.945Z,2.01
2022-12-11T02:55:04.194Z,2.02
2022-12-11T02:57:46.124Z,2.02
2022-12-11T03:00:14.396Z,2.05
2022-12-11T03:02:42.198Z,2.05
2022-12-11T03:05:12.844Z,2.05
2022-12-11T03:07:43.960Z,2.03
2022-12-11T03:10:18.835Z,2.03
2022-12-11T03:12:53.732Z,2.04
2022-12-11T03:15:33.820Z,2.02
2022-12-11T03:18:15.231Z,2.03
2022-12-11T03:20:54.639Z,2.05
2022-12-11T03:23:34.919Z,2.03
2022-12-11T03:26:18.676Z,2.02
2022-12-11T03:28:59.856Z,2.04
2022-12-11T03:31:58.266Z,2.02
2022-12-11T03:34:38.769Z,2.01
2022-12-11T03:37:08.777Z,1.97
2022-12-11T03:39:55.608Z,1.98
2022-12-11T03:42:24.809Z,2.04
2022-12-11T03:44:57.191Z,2.04
2022-12-11T03:47:28.481Z,2.03
2022-12-11T03:49:59.472Z,2.03
2022-12-11T03:52:29.192Z,2.05
2022-12-11T03:55:02.725Z,2.04
2022-12-11T03:57:35.712Z,2.05
2022-12-11T04:00:08.291Z,2.07
2022-12-11T04:02:39.412Z,2.10
2022-12-11T04:05:08.596Z,2.11
2022-12-11T04:07:36.819Z,2.10
2022-12-11T04:10:05.486Z,2.13
2022-12-11T04:12:32.549Z,2.13
2022-12-11T04:15:02.555Z,2.14
2022-12-11T04:17:55.251Z,2.15
2022-12-11T04:20:41.618Z,2.14
2022-12-11T04:23:36.613Z,2.13
2022-12-11T04:26:30.193Z,2.09
2022-12-11T04:28:57.186Z,2.10
2022-12-11T04:31:24.527Z,2.11
2022-12-11T04:33:51.791Z,2.04
2022-12-11T04:36:19.208Z,2.07
2022-12-11T04:38:46.229Z,2.00
2022-12-11T04:41:16.179Z,2.06
2022-12-11T04:43:45.199Z,2.05
2022-12-11T04:46:13.838Z,2.03
2022-12-11T04:48:41.136Z,2.03
2022-12-11T04:51:09.908Z,2.04
2022-12-11T04:53:38.213Z,2.08
2022-12-11T04:56:10.992Z,2.08
2022-12-11T04:58:40.423Z,2.12
2022-12-11T05:01:16.569Z,2.11
2022-12-11T05:03:43.979Z,2.12
2022-12-11T05:06:12.853Z,2.13
2022-12-11T05:08:42.299Z,2.14
2022-12-11T05:11:13.273Z,2.13
2022-12-11T05:13:40.658Z,2.12
2022-12-11T05:16:36.693Z,2.10
2022-12-11T05:19:28.720Z,2.11
2022-12-11T05:21:56.123Z,2.11
2022-12-11T05:24:23.143Z,2.09
2022-12-11T05:26:50.463Z,2.11
2022-12-11T05:29:17.504Z,2.10
2022-12-11T05:31:44.859Z,2.09
2022-12-11T05:34:11.894Z,2.11
2022-12-11T05:36:39.299Z,2.12
2022-12-11T05:39:06.252Z,2.13
2022-12-11T05:41:33.257Z,2.13
2022-12-11T05:44:00.869Z,2.12
2022-12-11T05:46:30.574Z,2.12
2022-12-11T05:49:01.675Z,2.12
2022-12-11T05:51:29.914Z,2.13
2022-12-11T05:53:58.193Z,2.13
2022-12-11T05:56:32.257Z,2.12
2022-12-11T05:59:02.272Z,2.11
2022-12-11T06:01:42.723Z,2.11
2022-12-11T06:04:12.435Z,2.10
2022-12-11T06:06:40.408Z,2.12
2022-12-11T06:09:09.204Z,2.12
2022-12-11T06:11:36.443Z,2.11
2022-12-11T06:14:04.510Z,2.13
2022-12-11T06:16:32.315Z,2.13
2022-12-11T06:18:59.732Z,2.15
2022-12-11T06:21:32.620Z,2.14
2022-12-11T06:24:03.457Z,2.16
2022-12-11T06:26:31.942Z,2.15
2022-12-11T06:28:59.912Z,2.11
2022-12-11T06:31:27.433Z,2.13
2022-12-11T06:33:55.627Z,2.13
2022-12-11T06:36:24.656Z,2.16
2022-12-11T06:38:52.695Z,2.16
2022-12-11T06:41:19.802Z,2.18
2022-12-11T06:43:47.222Z,2.18
2022-12-11T06:46:18.071Z,2.20
2022-12-11T06:48:48.017Z,2.20
2022-12-11T06:51:22.987Z,2.20
2022-12-11T06:53:56.985Z,2.20
2022-12-11T06:56:44.251Z,2.20
2022-12-11T07:00:00.592Z,2.19
2022-12-11T07:02:32.499Z,2.21
2022-12-11T07:04:59.935Z,2.22
2022-12-11T07:07:52.225Z,2.22
2022-12-11T07:10:19.686Z,2.21
2022-12-11T07:12:46.747Z,2.20
2022-12-11T07:15:14.316Z,2.20
2022-12-11T07:17:41.565Z,2.21
2022-12-11T07:20:09.837Z,2.21
2022-12-11T07:22:41.727Z,2.23
2022-12-11T07:25:13.973Z,2.21
2022-12-11T07:27:41.598Z,2.19
2022-12-11T07:30:10.657Z,2.21
2022-12-11T07:32:38.112Z,2.18
2022-12-11T07:35:06.649Z,2.18
2022-12-11T07:37:33.592Z,2.16
2022-12-11T07:40:00.900Z,2.15
2022-12-11T07:42:29.227Z,2.16
2022-12-11T07:44:56.485Z,2.18
2022-12-11T07:47:23.559Z,2.18
2022-12-11T07:49:50.835Z,2.15
2022-12-11T07:52:18.090Z,2.16
2022-12-11T07:54:45.509Z,2.18
2022-12-11T07:57:14.315Z,2.13
2022-12-11T07:59:41.897Z,2.14
2022-12-11T08:02:11.955Z,2.13
2022-12-11T08:04:39.401Z,2.17
2022-12-11T08:07:06.326Z,2.12
2022-12-11T08:09:33.657Z,2.13
2022-12-11T08:12:00.671Z,2.12
2022-12-11T08:14:28.399Z,2.08
2022-12-11T08:16:55.725Z,2.07
2022-12-11T08:19:23.335Z,2.08
2022-12-11T08:21:50.292Z,2.11
2022-12-11T08:24:20.620Z,2.14
2022-12-11T08:26:48.332Z,2.15
2022-12-11T08:29:15.768Z,2.17
2022-12-11T08:31:42.890Z,2.16
2022-12-11T08:34:13.723Z,2.13
2022-12-11T08:36:41.816Z,2.10
2022-12-11T08:39:09.136Z,2.06
2022-12-11T08:41:36.209Z,2.05
2022-12-11T08:44:05.989Z,2.03
2022-12-11T08:46:33.646Z,2.07
2022-12-11T08:49:01.005Z,2.10
2022-12-11T08:51:30.311Z,2.11
2022-12-11T08:54:03.499Z,2.10
2022-12-11T08:56:31.199Z,2.10
2022-12-11T08:59:02.740Z,2.11
2022-12-11T09:01:30.241Z,2.08
2022-12-11T09:03:57.558Z,2.09
2022-12-11T09:06:28.185Z,2.08
2022-12-11T09:08:59.287Z,2.09
2022-12-11T09:11:35.279Z,2.11
2022-12-11T09:14:07.627Z,2.12
2022-12-11T09:16:40.500Z,2.13
2022-12-11T09:19:14.061Z,2.14
2022-12-11T09:21:43.128Z,2.13
2022-12-11T09:24:14.889Z,2.11
2022-12-11T09:26:42.125Z,2.13
2022-12-11T09:29:11.452Z,2.15
2022-12-11T09:31:38.543Z,2.14
2022-12-11T09:34:11.380Z,2.15
2022-12-11T09:36:40.302Z,2.15
2022-12-11T09:39:09.252Z,2.16
2022-12-11T09:41:39.682Z,2.16
2022-12-11T09:44:33.407Z,2.13
2022-12-11T09:47:01.195Z,2.13
2022-12-11T09:49:43.972Z,2.12
2022-12-11T09:52:27.555Z,2.09
2022-12-11T09:55:02.856Z,2.09
2022-12-11T09:57:42.147Z,2.13
2022-12-11T10:00:32.436Z,2.12
2022-12-11T10:03:31.417Z,2.16
2022-12-11T10:06:33.489Z,2.17
2022-12-11T10:09:34.068Z,2.16
2022-12-11T10:12:23.552Z,2.11
2022-12-11T10:15:04.132Z,2.06
2022-12-11T10:17:36.778Z,2.03
2022-12-11T10:20:33.344Z,2.02
2022-12-11T10:23:01.620Z,2.03
2022-12-11T10:25:39.890Z,2.03
2022-12-11T10:28:16.379Z,2.01
2022-12-11T10:31:36.439Z,1.99
2022-12-11T10:34:13.597Z,1.97
2022-12-11T10:36:43.201Z,1.94
2022-12-11T10:39:20.850Z,1.91
2022-12-11T10:41:51.817Z,1.91
2022-12-11T10:44:26.354Z,1.90
2022-12-11T10:47:02.656Z,1.89
2022-12-11T10:49:33.624Z,1.89
2022-12-11T10:52:09.310Z,1.90
2022-12-11T10:54:49.045Z,1.92
2022-12-11T10:57:16.238Z,1.95
2022-12-11T10:59:43.313Z,1.92
2022-12-11T11:02:40.427Z,1.86
2022-12-11T11:05:30.335Z,1.85
2022-12-11T11:08:23.565Z,1.84
2022-12-11T11:11:00.781Z,1.87
2022-12-11T11:13:31.429Z,1.88
2022-12-11T11:16:12.313Z,1.89
2022-12-11T11:18:42.302Z,1.88
2022-12-11T11:21:23.099Z,1.90
2022-12-11T11:23:53.629Z,1.92
2022-12-11T11:26:22.852Z,1.94
2022-12-11T11:28:56.437Z,1.94
2022-12-11T11:31:35.156Z,1.94
2022-12-11T11:34:10.740Z,1.88
2022-12-11T11:36:38.541Z,1.83
2022-12-11T11:39:40.115Z,1.84
2022-12-11T11:42:30.063Z,1.85
2022-12-11T11:45:39.793Z,1.85
2022-12-11T11:48:31.592Z,1.84
2022-12-11T11:50:58.955Z,1.84
2022-12-11T11:53:40.470Z,1.82
2022-12-11T11:56:27.713Z,1.76
2022-12-11T11:59:25.125Z,1.75
2022-12-11T12:01:56.928Z,1.78
2022-12-11T12:04:32.550Z,1.78
2022-12-11T12:07:20.909Z,1.80
2022-12-11T12:10:05.987Z,1.81
2022-12-11T12:12:53.739Z,1.82
2022-12-11T12:15:45.026Z,1.81
2022-12-11T12:18:23.934Z,1.85
2022-12-11T12:21:15.653Z,1.83
2022-12-11T12:24:11.380Z,1.80
2022-12-11T12:26:56.112Z,1.82
2022-12-11T12:29:49.004Z,1.84
2022-12-11T12:32:41.685Z,1.86
2022-12-11T12:35:34.576Z,1.84
2022-12-11T12:38:10.223Z,1.83
2022-12-11T12:41:19.603Z,1.84
2022-12-11T12:44:10.051Z,1.80
2022-12-11T12:46:49.207Z,1.80
2022-12-11T12:49:39.986Z,1.80
2022-12-11T12:52:23.081Z,1.84
2022-12-11T12:55:16.039Z,1.85
2022-12-11T12:58:00.469Z,1.86
2022-12-11T13:00:39.570Z,1.84
2022-12-11T13:03:30.358Z,1.85
2022-12-11T13:06:10.244Z,1.84
2022-12-11T13:08:48.740Z,1.83
2022-12-11T13:11:20.748Z,1.77
2022-12-11T13:14:01.761Z,1.70
2022-12-11T13:16:43.867Z,1.70
2022-12-11T13:19:23.183Z,1.69
2022-12-11T13:22:12.905Z,1.67
2022-12-11T13:25:01.891Z,1.69
2022-12-11T13:27:35.298Z,1.70
2022-12-11T13:30:26.700Z,1.73
2022-12-11T13:33:24.103Z,1.73
2022-12-11T13:36:15.910Z,1.74
2022-12-11T13:38:56.807Z,1.75
2022-12-11T13:41:24.691Z,1.75
2022-12-11T13:43:53.744Z,1.75
2022-12-11T13:46:34.727Z,1.76
2022-12-11T13:49:06.838Z,1.74
2022-12-11T13:51:36.196Z,1.73
2022-12-11T13:54:17.688Z,1.73
2022-12-11T13:57:17.614Z,1.77
2022-12-11T13:59:55.794Z,1.79
2022-12-11T14:02:42.474Z,1.82
2022-12-11T14:05:12.899Z,1.83
2022-12-11T14:07:50.669Z,1.82
2022-12-11T14:10:24.843Z,1.81
2022-12-11T14:13:08.334Z,1.79
2022-12-11T14:15:36.996Z,1.78
2022-12-11T14:18:05.876Z,1.78
2022-12-11T14:20:34.854Z,1.77
2022-12-11T14:23:20.309Z,1.77
2022-12-11T14:26:31.311Z,1.75
2022-12-11T14:28:58.512Z,1.75
2022-12-11T14:31:42.449Z,1.76
2022-12-11T14:34:15.514Z,1.77
2022-12-11T14:36:44.486Z,1.75
2022-12-11T14:39:19.824Z,1.76
2022-12-11T14:42:12.364Z,1.74
2022-12-11T14:45:08.675Z,1.69
2022-12-11T14:47:43.433Z,1.67
2022-12-11T14:50:25.884Z,1.66
2022-12-11T14:53:05.098Z,1.65
2022-12-11T14:55:37.784Z,1.64
2022-12-11T14:58:26.544Z,1.61
2022-12-11T15:01:05.635Z,1.61
2022-12-11T15:03:42.203Z,1.62
2022-12-11T15:06:29.375Z,1.66
2022-12-11T15:08:57.514Z,1.70
2022-12-11T15:11:32.519Z,1.69
2022-12-11T15:14:04.182Z,1.68
2022-12-11T15:16:41.746Z,1.69
2022-12-11T15:19:32.653Z,1.64
2022-12-11T15:22:08.512Z,1.65
2022-12-11T15:24:41.837Z,1.66
2022-12-11T15:27:38.707Z,1.68
2022-12-11T15:30:17.997Z,1.68
2022-12-11T15:32:45.366Z,1.69
2022-12-11T15:35:27.734Z,1.70
2022-12-11T15:37:58.216Z,1.70
2022-12-11T15:40:27.729Z,1.71
2022-12-11T15:42:56.930Z,1.72
2022-12-11T15:45:28.460Z,1.72
2022-12-11T15:47:57.439Z,1.71
2022-12-11T15:50:30.237Z,1.72
2022-12-11T15:52:58.552Z,1.72
2022-12-11T15:55:29.659Z,1.70
2022-12-11T15:58:06.022Z,1.70
2022-12-11T16:00:33.545Z,1.70
2022-12-11T16:03:00.572Z,1.70
2022-12-11T16:05:30.343Z,1.69
2022-12-11T16:07:59.632Z,1.70
2022-12-11T16:10:27.451Z,1.70
2022-12-11T16:12:59.286Z,1.70
2022-12-11T16:15:27.465Z,1.72
2022-12-11T16:18:08.409Z,1.74
2022-12-11T16:20:38.112Z,1.75
2022-12-11T16:23:05.962Z,1.75
2022-12-11T16:25:34.093Z,1.74
2022-12-11T16:28:01.835Z,1.74
2022-12-11T16:30:29.614Z,1.76
2022-12-11T16:32:56.851Z,1.77
2022-12-11T16:35:24.048Z,1.79
2022-12-11T16:37:54.700Z,1.82
2022-12-11T16:40:23.289Z,1.79
2022-12-11T16:42:50.711Z,1.78
2022-12-11T16:45:22.841Z,1.74
2022-12-11T16:47:50.181Z,1.71
2022-12-11T16:50:18.804Z,1.70
2022-12-11T16:52:46.483Z,1.69
2022-12-11T16:55:15.011Z,1.65
2022-12-11T16:57:42.248Z,1.66
2022-12-11T17:00:14.121Z,1.68
2022-12-11T17:02:41.260Z,1.66
2022-12-11T17:05:09.028Z,1.65
2022-12-11T17:07:36.368Z,1.63
2022-12-11T17:10:05.134Z,1.57
2022-12-11T17:12:32.210Z,1.48
2022-12-11T17:14:59.892Z,1.50
2022-12-11T17:17:27.020Z,1.48
2022-12-11T17:19:56.381Z,1.48
2022-12-11T17:22:23.551Z,1.50
2022-12-11T17:24:50.781Z,1.47
2022-12-11T17:27:17.805Z,1.44
2022-12-11T17:29:45.129Z,1.47
2022-12-11T17:32:12.145Z,1.48
2022-12-11T17:34:39.374Z,1.44
2022-12-11T17:37:06.562Z,1.41
2022-12-11T17:39:34.013Z,1.40
2022-12-11T17:42:01.818Z,1.42
2022-12-11T17:44:30.835Z,1.45
2022-12-11T17:46:59.011Z,1.47
2022-12-11T17:49:26.464Z,1.48
2022-12-11T17:51:55.389Z,1.47
2022-12-11T17:54:24.133Z,1.50
2022-12-11T17:56:51.569Z,1.48
2022-12-11T17:59:18.861Z,1.47
2022-12-11T18:01:45.968Z,1.48
2022-12-11T18:04:13.763Z,1.47
2022-12-11T18:06:41.085Z,1.48
2022-12-11T18:09:08.468Z,1.48
2022-12-11T18:11:35.579Z,1.48
2022-12-11T18:14:03.032Z,1.44
2022-12-11T18:16:37.876Z,1.31
2022-12-11T18:19:08.326Z,1.29
2022-12-11T18:21:41.225Z,1.37
2022-12-11T18:24:09.612Z,1.37
2022-12-11T18:26:37.526Z,1.40
2022-12-11T18:29:05.529Z,1.46
2022-12-11T18:31:36.313Z,1.48
2022-12-11T18:34:07.112Z,1.48
2022-12-11T18:36:35.186Z,1.44
2022-12-11T18:39:04.226Z,1.42
2022-12-11T18:41:31.310Z,1.42
2022-12-11T18:44:05.265Z,1.39
2022-12-11T18:46:35.206Z,1.33
2022-12-11T18:49:04.533Z,1.30
2022-12-11T18:51:31.659Z,1.33
2022-12-11T18:53:58.937Z,1.35
2022-12-11T18:56:26.106Z,1.31
2022-12-11T18:58:53.429Z,1.30
2022-12-11T19:01:25.835Z,1.35
2022-12-11T19:04:02.417Z,1.36
2022-12-11T19:06:33.063Z,1.36
2022-12-11T19:09:00.870Z,1.31
2022-12-11T19:11:31.835Z,1.27
2022-12-11T19:13:59.941Z,1.21
2022-12-11T19:16:38.371Z,1.23
2022-12-11T19:19:15.540Z,1.26
2022-12-11T19:21:44.588Z,1.31
2022-12-11T19:24:17.769Z,1.37
2022-12-11T19:26:45.855Z,1.43
2022-12-11T19:29:29.596Z,1.47
2022-12-11T19:31:56.866Z,1.50
2022-12-11T19:34:25.301Z,1.48
2022-12-11T19:36:52.295Z,1.44
2022-12-11T19:39:19.963Z,1.41
2022-12-11T19:41:48.724Z,1.40
2022-12-11T19:44:15.975Z,1.39
2022-12-11T19:46:43.046Z,1.40
2022-12-11T19:49:11.443Z,1.39
2022-12-11T19:51:42.120Z,1.37
2022-12-11T19:54:14.869Z,1.35
2022-12-11T19:56:43.688Z,1.31
2022-12-11T19:59:16.577Z,1.32
2022-12-11T20:01:47.797Z,1.33
2022-12-11T20:04:17.500Z,1.32
2022-12-11T20:06:46.691Z,1.31
2022-12-11T20:09:15.443Z,1.31
2022-12-11T20:11:44.759Z,1.33
2022-12-11T20:14:25.312Z,1.33
2022-12-11T20:17:11.048Z,1.33
2022-12-11T20:19:40.184Z,1.35
2022-12-11T20:22:07.610Z,1.40
2022-12-11T20:24:35.925Z,1.38
2022-12-11T20:27:03.893Z,1.40
2022-12-11T20:29:31.312Z,1.46
2022-12-11T20:31:59.807Z,1.44
2022-12-11T20:34:27.999Z,1.43
2022-12-11T20:36:56.165Z,1.43
2022-12-11T20:39:24.536Z,1.39
2022-12-11T20:41:51.608Z,1.38
2022-12-11T20:44:20.062Z,1.40
2022-12-11T20:46:47.231Z,1.35
2022-12-11T20:49:14.560Z,1.33
2022-12-11T20:51:41.973Z,1.26
2022-12-11T20:54:09.900Z,1.24
2022-12-11T20:56:37.708Z,1.25
2022-12-11T20:59:06.810Z,1.21
2022-12-11T21:01:34.952Z,1.16
2022-12-11T21:04:03.673Z,1.17
2022-12-11T21:06:38.585Z,1.21
2022-12-11T21:09:19.272Z,1.24
2022-12-11T21:11:46.385Z,1.28
2022-12-11T21:14:16.128Z,1.33
2022-12-11T21:16:44.330Z,1.38
2022-12-11T21:19:17.114Z,1.39
2022-12-11T21:21:45.346Z,1.42
2022-12-11T21:24:26.547Z,1.44
2022-12-11T21:26:57.516Z,1.47
2022-12-11T21:29:27.558Z,1.48
2022-12-11T21:31:54.609Z,1.44
2022-12-11T21:34:25.608Z,1.43
2022-12-11T21:36:56.702Z,1.45
2022-12-11T21:39:26.739Z,1.46
2022-12-11T21:41:53.996Z,1.49
2022-12-11T21:47:09.205Z,1.50
2022-12-11T21:49:37.485Z,1.52
2022-12-11T21:52:05.172Z,1.49
2022-12-11T21:54:32.432Z,1.46
2022-12-11T21:56:59.621Z,1.46
2022-12-11T21:59:28.536Z,1.45
2022-12-11T22:01:56.059Z,1.44
2022-12-11T22:04:23.744Z,1.43
2022-12-11T22:06:50.829Z,1.45
2022-12-11T22:09:18.418Z,1.47
2022-12-11T22:11:47.150Z,1.46
2022-12-11T22:14:19.538Z,1.46
2022-12-11T22:16:50.047Z,1.44
2022-12-11T22:19:17.367Z,1.43
2022-12-11T22:21:44.403Z,1.44
2022-12-11T22:24:11.656Z,1.46
2022-12-11T22:26:39.525Z,1.46
2022-12-11T22:29:06.976Z,1.47
2022-12-11T22:31:34.261Z,1.46
2022-12-11T22:34:04.873Z,1.43
2022-12-11T22:36:31.842Z,1.45
2022-12-11T22:39:00.981Z,1.47
2022-12-11T22:41:33.275Z,1.48
2022-12-11T22:44:00.919Z,1.47
2022-12-11T22:46:30.849Z,1.48
2022-12-11T22:48:59.062Z,1.49
2022-12-11T22:51:27.785Z,1.47
2022-12-11T22:53:55.422Z,1.47
2022-12-11T22:56:22.600Z,1.48
2022-12-11T22:58:49.973Z,1.47
2022-12-11T23:01:21.783Z,1.47
2022-12-11T23:03:49.463Z,1.49
2022-12-11T23:06:24.814Z,1.53
2022-12-11T23:08:55.094Z,1.55
2022-12-11T23:11:31.762Z,1.50
2022-12-11T23:13:59.171Z,1.52
2022-12-11T23:16:27.396Z,1.51
2022-12-11T23:18:56.798Z,1.53
2022-12-11T23:21:28.252Z,1.53
2022-12-11T23:23:57.996Z,1.52
2022-12-11T23:26:29.286Z,1.50
2022-12-11T23:28:59.613Z,1.48
2022-12-11T23:31:27.648Z,1.48
2022-12-11T23:33:55.210Z,1.49
2022-12-11T23:36:23.410Z,1.53
2022-12-11T23:38:54.519Z,1.50
2022-12-11T23:41:23.686Z,1.49
2022-12-11T23:43:51.536Z,1.47
2022-12-11T23:46:23.180Z,1.48
2022-12-11T23:48:52.593Z,1.48
2022-12-11T23:51:21.494Z,1.46
2022-12-11T23:53:48.924Z,1.44
2022-12-11T23:56:24.760Z,1.44
2022-12-11T23:58:53.351Z,1.45
